createdAt,value
2023-03-22T00:00:18.455Z,9.12
2023-03-22T00:05:18.308Z,9.07
2023-03-22T00:10:18.278Z,9.01
2023-03-22T00:15:18.176Z,8.94
2023-03-22T00:20:20.695Z,8.86
2023-03-22T00:25:18.079Z,8.79
2023-03-22T00:30:17.980Z,8.72
2023-03-22T00:35:17.952Z,8.69
2023-03-22T00:40:18.458Z,8.69
2023-03-22T00:45:17.804Z,8.69
2023-03-22T00:50:17.743Z,8.68
2023-03-22T00:55:17.635Z,8.66
2023-03-22T01:00:17.603Z,8.65
2023-03-22T01:05:43.900Z,8.64
2023-03-22T01:10:36.365Z,8.60
2023-03-22T01:15:36.255Z,8.56
2023-03-22T01:20:36.168Z,8.53
2023-03-22T01:25:36.133Z,8.50
2023-03-22T01:30:36.072Z,8.47
2023-03-22T01:35:36.092Z,8.43
2023-03-22T01:40:35.913Z,8.39
2023-03-22T01:45:35.857Z,8.36
2023-03-22T01:50:35.761Z,8.32
2023-03-22T01:55:35.737Z,8.29
2023-03-22T02:00:35.642Z,8.25
2023-03-22T02:05:35.585Z,8.22
2023-03-22T02:10:35.543Z,8.19
2023-03-22T02:15:35.502Z,8.14
2023-03-22T02:20:35.375Z,8.08
2023-03-22T02:25:35.324Z,8.03
2023-03-22T02:30:35.339Z,7.98
2023-03-22T02:35:35.212Z,7.93
2023-03-22T02:40:35.115Z,7.88
2023-03-22T02:45:35.053Z,7.84
2023-03-22T02:50:34.968Z,7.81
2023-03-22T02:55:34.935Z,7.79
2023-03-22T03:00:34.889Z,7.78
2023-03-22T03:05:34.811Z,7.78
2023-03-22T03:10:34.706Z,7.78
2023-03-22T03:15:34.658Z,7.78
2023-03-22T03:20:34.580Z,7.79
2023-03-22T03:25:34.506Z,7.81
2023-03-22T03:30:34.447Z,7.85
2023-03-22T03:35:34.421Z,7.90
2023-03-22T03:40:34.315Z,7.95
2023-03-22T03:45:34.298Z,7.99
2023-03-22T03:50:34.164Z,8.02
2023-03-22T03:55:34.139Z,8.05
2023-03-22T04:00:34.037Z,8.08
2023-03-22T04:05:34.007Z,8.12
2023-03-22T04:10:33.895Z,8.18
2023-03-22T04:15:33.859Z,8.23
2023-03-22T04:20:33.772Z,8.29
2023-03-22T04:25:33.727Z,8.34
2023-03-22T04:30:33.630Z,8.40
2023-03-22T04:35:33.593Z,8.45
2023-03-22T04:40:33.499Z,8.50
2023-03-22T04:45:33.445Z,8.54
2023-03-22T04:50:33.365Z,8.58
2023-03-22T04:55:33.503Z,8.62
2023-03-22T05:00:33.233Z,8.65
2023-03-22T05:05:33.184Z,8.68
2023-03-22T05:10:33.090Z,8.70
2023-03-22T05:15:47.647Z,8.71
2023-03-22T05:20:40.223Z,8.72
2023-03-22T05:25:39.948Z,8.73
2023-03-22T05:30:40.048Z,8.75
2023-03-22T05:35:39.861Z,8.79
2023-03-22T05:40:39.989Z,8.83
2023-03-22T05:45:39.684Z,8.88
2023-03-22T05:50:39.754Z,8.94
2023-03-22T05:55:39.513Z,9.00
2023-03-22T06:00:39.717Z,9.05
2023-03-22T06:05:39.395Z,9.11
2023-03-22T06:10:39.742Z,9.18
2023-03-22T06:15:39.290Z,9.23
2023-03-22T06:20:39.425Z,9.26
2023-03-22T06:25:39.145Z,9.27
2023-03-22T06:30:39.495Z,9.32
2023-03-22T06:35:39.036Z,9.43
2023-03-22T06:40:39.303Z,9.67
2023-03-22T06:45:38.931Z,10.00
2023-03-22T06:50:39.069Z,10.28
2023-03-22T06:55:38.742Z,10.50
2023-03-22T07:00:39.077Z,10.71
2023-03-22T07:05:38.612Z,10.99
2023-03-22T07:10:38.962Z,11.32
2023-03-22T07:15:38.536Z,12.06
2023-03-22T07:20:38.686Z,12.76
2023-03-22T07:25:38.337Z,13.08
2023-03-22T07:30:38.424Z,13.08
2023-03-22T07:35:38.203Z,12.90
2023-03-22T07:40:38.418Z,12.90
2023-03-22T07:45:38.025Z,13.12
2023-03-22T07:50:38.385Z,13.44
2023-03-22T07:55:37.915Z,13.95
2023-03-22T08:00:38.365Z,14.68
2023-03-22T08:05:38.061Z,15.09
2023-03-22T08:10:38.040Z,15.37
2023-03-22T08:15:37.974Z,16.19
2023-03-22T08:20:38.223Z,17.14
2023-03-22T08:25:37.511Z,18.19
2023-03-22T08:30:37.702Z,18.94
2023-03-22T08:35:37.589Z,18.75
2023-03-22T08:40:37.390Z,17.95
2023-03-22T08:45:37.326Z,17.05
2023-03-22T08:50:37.312Z,16.63
2023-03-22T08:55:37.241Z,17.01
2023-03-22T09:00:48.245Z,17.62
2023-03-22T09:05:38.301Z,17.86
2023-03-22T09:10:36.926Z,18.68
2023-03-22T09:15:36.843Z,19.98
2023-03-22T09:20:36.764Z,20.38
2023-03-22T09:25:36.747Z,20.70
2023-03-22T09:30:36.651Z,21.21
2023-03-22T09:35:36.607Z,21.38
2023-03-22T09:40:36.543Z,22.09
2023-03-22T09:45:36.429Z,22.67
2023-03-22T09:50:36.368Z,22.79
2023-03-22T09:55:36.310Z,22.44
2023-03-22T10:00:36.342Z,22.13
2023-03-22T10:05:36.156Z,21.87
2023-03-22T10:10:36.143Z,22.10
2023-03-22T10:15:36.022Z,23.20
2023-03-22T10:20:35.968Z,24.26
2023-03-22T10:25:35.925Z,24.42
2023-03-22T10:30:35.837Z,23.67
2023-03-22T10:35:35.756Z,22.68
2023-03-22T10:40:35.704Z,21.94
2023-03-22T10:45:35.621Z,21.55
2023-03-22T10:50:35.568Z,21.19
2023-03-22T10:55:35.485Z,21.07
2023-03-22T11:00:38.338Z,21.05
2023-03-22T11:05:35.342Z,20.97
2023-03-22T11:10:36.166Z,20.89
2023-03-22T11:15:35.224Z,21.19
2023-03-22T11:20:35.224Z,21.60
2023-03-22T11:25:35.077Z,21.45
2023-03-22T11:30:35.049Z,21.09
2023-03-22T11:35:34.954Z,20.75
2023-03-22T11:40:34.898Z,20.54
2023-03-22T11:45:34.807Z,20.73
2023-03-22T11:50:34.755Z,21.19
2023-03-22T11:55:34.670Z,21.29
2023-03-22T12:00:34.636Z,20.96
2023-03-22T12:05:34.528Z,20.45
2023-03-22T12:10:34.478Z,19.91
2023-03-22T12:15:34.408Z,19.45
2023-03-22T12:20:34.340Z,19.10
2023-03-22T12:25:34.253Z,18.90
2023-03-22T12:30:34.232Z,18.83
2023-03-22T12:35:34.127Z,18.83
2023-03-22T12:40:34.075Z,18.86
2023-03-22T12:45:33.987Z,18.84
2023-03-22T12:50:33.971Z,18.69
2023-03-22T12:55:33.846Z,18.40
2023-03-22T13:00:33.838Z,18.05
2023-03-22T13:05:33.735Z,17.71
2023-03-22T13:10:33.652Z,17.41
2023-03-22T13:15:41.157Z,17.13
2023-03-22T13:20:34.518Z,16.87
2023-03-22T13:25:33.488Z,16.65
2023-03-22T13:30:33.427Z,16.43
2023-03-22T13:35:33.353Z,16.26
2023-03-22T13:40:33.250Z,16.13
2023-03-22T13:45:33.171Z,16.02
2023-03-22T13:50:33.159Z,15.91
2023-03-22T13:55:33.060Z,15.81
2023-03-22T14:00:33.007Z,15.78
2023-03-22T14:05:32.930Z,15.80
2023-03-22T14:10:32.868Z,15.87
2023-03-22T14:15:32.815Z,15.92
2023-03-22T14:20:32.709Z,15.92
